Time;durP1;ratioP1;P1;durP2;ratioP2;P2;SDS_P1;SDS_P2;PMS_P1;PMS_P2;Temp;Humidity;BMP_temperature;BMP_pressure;BME280_temperature;BME280_humidity;BME280_pressure;Samples;Min_cycle;Max_cycle;Signal;HPM_P1;HPM_P2
2022/05/21 00:00:15;;;;;;;13.30;8.20;;;24.00;58.60;;;;;;5068674;28;20451;-78
2022/05/21 00:02:41;;;;;;;9.82;7.50;;;24.00;58.90;;;;;;5064403;28;20032;-75
2022/05/21 00:05:07;;;;;;;12.20;8.32;;;24.10;58.60;;;;;;5073552;28;20027;-76
2022/05/21 00:07:33;;;;;;;10.18;7.15;;;23.90;58.70;;;;;;5054054;28;20025;-75
2022/05/21 00:09:59;;;;;;;9.23;6.50;;;23.80;59.30;;;;;;5041550;28;20017;-75
2022/05/21 00:12:25;;;;;;;11.65;6.75;;;23.50;60.10;;;;;;5052520;28;20173;-79
2022/05/21 00:14:52;;;;;;;11.43;7.57;;;22.90;62.10;;;;;;5040562;28;20065;-76
2022/05/21 00:17:19;;;;;;;11.88;7.68;;;23.00;61.20;;;;;;5032620;28;20017;-77
2022/05/21 00:19:45;;;;;;;9.70;6.80;;;23.30;60.30;;;;;;5039929;28;20033;-76
2022/05/21 00:22:14;;;;;;;9.75;7.05;;;23.50;60.00;;;;;;5046780;28;20364;-77
2022/05/21 00:24:40;;;;;;;9.65;7.22;;;23.70;59.90;;;;;;5044454;28;20029;-76
2022/05/21 00:27:07;;;;;;;12.32;8.10;;;23.80;59.00;;;;;;5051591;28;20087;-76
2022/05/21 00:29:33;;;;;;;11.27;8.45;;;23.80;58.70;;;;;;5047352;28;20021;-76
2022/05/21 00:31:59;;;;;;;9.85;7.57;;;23.60;59.30;;;;;;5051256;28;20021;-76
2022/05/21 00:34:24;;;;;;;11.45;7.78;;;23.60;59.40;;;;;;5052495;28;20044;-76
2022/05/21 00:36:51;;;;;;;8.95;6.20;;;23.50;59.40;;;;;;5052268;28;20025;-75
2022/05/21 00:39:17;;;;;;;9.10;6.32;;;23.50;59.80;;;;;;5047406;28;20029;-74
2022/05/21 00:41:43;;;;;;;8.68;5.60;;;23.40;60.30;;;;;;5048991;28;20025;-75
2022/05/21 00:44:09;;;;;;;8.85;5.80;;;22.90;62.00;;;;;;5050288;28;20063;-75
2022/05/21 00:46:38;;;;;;;9.10;6.35;;;22.90;62.40;;;;;;5051735;28;20017;-78
2022/05/21 00:49:13;;;;;;;8.85;6.38;;;23.00;61.00;;;;;;5042395;28;20116;-75
2022/05/21 00:51:52;;;;;;;8.13;5.50;;;23.30;60.50;;;;;;5032968;28;20373;-75
2022/05/21 00:54:22;;;;;;;8.20;5.47;;;23.20;60.60;;;;;;5032865;28;20439;-75
2022/05/21 00:56:58;;;;;;;7.80;5.72;;;22.50;62.80;;;;;;5032672;28;20505;-76
2022/05/21 01:02:11;;;;;;;8.60;6.50;;;22.60;61.80;;;;;;5032622;28;20047;-75
2022/05/21 01:04:37;;;;;;;6.82;5.18;;;23.00;61.40;;;;;;5041247;28;20032;-75
2022/05/21 01:07:04;;;;;;;10.30;5.55;;;23.00;61.60;;;;;;5072426;28;20052;-75
2022/05/21 01:09:33;;;;;;;7.68;5.50;;;22.80;62.20;;;;;;5072179;28;20028;-76
2022/05/21 01:12:05;;;;;;;7.05;5.53;;;23.10;61.40;;;;;;5037169;28;20018;-75
2022/05/21 01:14:31;;;;;;;6.97;5.05;;;23.50;60.40;;;;;;5032055;28;20453;-76
2022/05/21 01:16:59;;;;;;;9.25;5.93;;;23.70;59.60;;;;;;5035007;28;20025;-78
2022/05/21 01:19:24;;;;;;;7.53;4.70;;;23.90;59.00;;;;;;5039479;28;20027;-76
2022/05/21 01:21:50;;;;;;;6.97;5.00;;;23.60;60.00;;;;;;5054987;28;20068;-75
2022/05/21 01:24:16;;;;;;;8.55;5.35;;;23.40;60.80;;;;;;5053988;28;20078;-75
2022/05/21 01:26:42;;;;;;;7.28;4.55;;;23.40;60.70;;;;;;5052886;28;20031;-77
2022/05/21 01:29:26;;;;;;;5.57;4.60;;;22.70;62.70;;;;;;5047015;28;20029;-76
2022/05/21 01:31:53;;;;;;;7.80;5.20;;;22.40;63.90;;;;;;5053662;28;20051;-75
2022/05/21 01:34:21;;;;;;;8.00;5.25;;;22.70;63.70;;;;;;5055285;28;20135;-76
2022/05/21 01:36:47;;;;;;;7.20;5.35;;;22.90;61.70;;;;;;5051121;28;20014;-77
2022/05/21 01:39:13;;;;;;;6.32;5.20;;;23.20;60.90;;;;;;5053021;28;20063;-76
2022/05/21 01:41:43;;;;;;;7.95;4.97;;;23.40;60.50;;;;;;5055674;28;20021;-76
2022/05/21 01:46:53;;;;;;;6.68;5.20;;;23.60;60.70;;;;;;5041073;28;20113;-76
2022/05/21 01:49:19;;;;;;;8.75;5.25;;;23.60;60.50;;;;;;5041126;28;20104;-76
2022/05/21 01:51:45;;;;;;;9.63;5.45;;;23.80;59.90;;;;;;5056005;28;20028;-78
2022/05/21 01:54:10;;;;;;;9.07;5.60;;;23.80;59.80;;;;;;5042572;28;20037;-76
2022/05/21 01:56:36;;;;;;;7.53;5.28;;;23.80;60.20;;;;;;5052812;28;20033;-78
2022/05/21 01:59:02;;;;;;;9.27;6.00;;;23.70;60.80;;;;;;5053866;28;20028;-78
2022/05/21 02:01:28;;;;;;;7.68;5.90;;;23.80;61.20;;;;;;5055608;28;20127;-77
2022/05/21 02:03:53;;;;;;;7.53;5.80;;;23.80;61.30;;;;;;5052544;28;20119;-78
2022/05/21 02:06:19;;;;;;;8.75;6.13;;;23.80;61.90;;;;;;5050065;28;20021;-75
2022/05/21 02:08:45;;;;;;;9.75;6.07;;;23.70;62.70;;;;;;5048904;28;20029;-78
2022/05/21 02:11:12;;;;;;;8.40;6.28;;;24.00;62.50;;;;;;5052514;28;20036;-75
2022/05/21 02:13:38;;;;;;;7.30;6.20;;;24.10;62.40;;;;;;5053246;28;20394;-86
2022/05/21 02:16:04;;;;;;;8.30;5.80;;;24.10;62.30;;;;;;5053320;28;20471;-86
2022/05/21 02:18:30;;;;;;;9.13;5.45;;;23.80;61.50;;;;;;5055307;28;20035;-87
2022/05/21 02:20:56;;;;;;;9.68;5.57;;;23.70;62.10;;;;;;5053147;28;20021;-86
2022/05/21 02:23:23;;;;;;;9.68;5.85;;;23.60;62.20;;;;;;5054561;28;20099;-84
2022/05/21 02:25:49;;;;;;;9.77;5.80;;;23.60;62.90;;;;;;5054214;28;20021;-77
2022/05/21 02:28:15;;;;;;;10.30;5.55;;;23.80;63.00;;;;;;5052111;28;20021;-82
2022/05/21 02:30:42;;;;;;;12.98;5.30;;;24.10;62.40;;;;;;5052677;28;20464;-81
2022/05/21 02:33:08;;;;;;;12.02;5.50;;;24.20;62.10;;;;;;5054141;28;20032;-81
2022/05/21 02:35:34;;;;;;;8.00;5.53;;;24.40;63.40;;;;;;5053995;28;20083;-81
2022/05/21 02:40:44;;;;;;;6.72;5.20;;;24.40;64.40;;;;;;5054850;28;20162;-78
2022/05/21 02:43:10;;;;;;;7.15;5.55;;;24.20;64.40;;;;;;5054674;28;20479;-76
2022/05/21 02:45:36;;;;;;;6.93;5.53;;;23.80;65.20;;;;;;5046994;28;20400;-82
2022/05/21 02:48:01;;;;;;;7.75;5.47;;;23.60;65.70;;;;;;5053994;28;20094;-83
2022/05/21 02:50:33;;;;;;;9.55;5.65;;;23.50;66.40;;;;;;5052770;28;20029;-87
2022/05/21 02:53:15;;;;;;;7.50;5.53;;;23.30;66.90;;;;;;5054578;28;20037;-80
2022/05/21 02:55:41;;;;;;;8.43;5.88;;;23.10;68.00;;;;;;5042918;28;20060;-76
2022/05/21 02:58:07;;;;;;;8.63;7.03;;;23.30;67.90;;;;;;5054204;28;20665;-79
2022/05/21 03:00:34;;;;;;;10.15;6.18;;;23.60;67.40;;;;;;5051972;28;20056;-79
2022/05/21 03:03:00;;;;;;;8.95;6.80;;;23.70;67.30;;;;;;5053123;28;20112;-77
2022/05/21 03:05:29;;;;;;;7.45;6.28;;;23.70;67.50;;;;;;5051188;28;20037;-82
2022/05/21 03:07:55;;;;;;;13.45;6.60;;;24.00;67.30;;;;;;5054249;28;20021;-74
2022/05/21 03:10:23;;;;;;;11.32;7.50;;;24.40;66.80;;;;;;5053382;28;20373;-76
2022/05/21 03:12:58;;;;;;;9.32;6.90;;;24.60;65.80;;;;;;5053368;28;20095;-84
2022/05/21 03:15:29;;;;;;;9.60;7.50;;;24.40;67.00;;;;;;5052771;28;20102;-80
2022/05/21 03:17:55;;;;;;;11.02;8.75;;;24.50;67.40;;;;;;5033515;28;20025;-82
2022/05/21 03:20:22;;;;;;;10.48;7.80;;;24.60;66.90;;;;;;5050026;28;20083;-78
2022/05/21 03:22:48;;;;;;;11.18;8.38;;;24.70;66.70;;;;;;5053469;28;20029;-80
2022/05/21 03:25:15;;;;;;;12.02;8.32;;;24.70;66.80;;;;;;5051301;28;20031;-77
2022/05/21 03:27:41;;;;;;;10.77;7.80;;;24.80;67.20;;;;;;5052182;28;20485;-78
2022/05/21 03:30:09;;;;;;;10.35;8.73;;;24.50;68.10;;;;;;5037797;28;20029;-86
2022/05/21 03:32:35;;;;;;;11.35;8.32;;;23.80;69.80;;;;;;5052336;28;20021;-79
2022/05/21 03:35:01;;;;;;;9.55;8.55;;;23.60;71.20;;;;;;5050190;28;20036;-79
2022/05/21 03:37:27;;;;;;;11.60;7.97;;;23.60;71.10;;;;;;5033542;28;20033;-79
2022/05/21 03:39:52;;;;;;;9.88;7.93;;;23.60;72.00;;;;;;5042629;28;20079;-79
2022/05/21 03:42:19;;;;;;;9.75;7.82;;;23.80;71.80;;;;;;5052376;28;20040;-79
2022/05/21 03:44:45;;;;;;;11.48;8.57;;;24.00;71.20;;;;;;5052265;28;20028;-82
2022/05/21 03:47:12;;;;;;;9.50;6.97;;;24.10;71.40;;;;;;5051463;28;20025;-79
2022/05/21 03:49:37;;;;;;;9.38;7.10;;;24.20;71.00;;;;;;5053388;28;20031;-85
2022/05/21 03:52:03;;;;;;;8.43;6.30;;;24.30;70.70;;;;;;5052613;28;20033;-86
2022/05/21 03:54:29;;;;;;;9.38;7.75;;;24.70;69.30;;;;;;5053377;28;20040;-84
2022/05/21 03:56:55;;;;;;;16.52;12.43;;;24.90;68.30;;;;;;5052228;28;20021;-81
2022/05/21 03:59:21;;;;;;;13.60;9.35;;;25.10;67.70;;;;;;5036023;28;20032;-82
2022/05/21 04:01:52;;;;;;;12.68;10.98;;;25.10;67.70;;;;;;5049761;28;20525;-85
2022/05/21 04:04:17;;;;;;;13.38;10.50;;;25.30;67.20;;;;;;5052715;28;20175;-79
2022/05/21 04:06:43;;;;;;;12.57;10.73;;;25.30;66.70;;;;;;5051276;28;20028;-80
2022/05/21 04:09:10;;;;;;;10.20;8.60;;;25.40;66.90;;;;;;5053199;28;20483;-80
2022/05/21 04:11:35;;;;;;;13.57;10.75;;;25.30;67.80;;;;;;5052472;28;20056;-80
2022/05/21 04:14:01;;;;;;;11.85;9.70;;;25.10;68.50;;;;;;5051065;28;20132;-82
2022/05/21 04:16:27;;;;;;;13.93;11.25;;;25.30;67.70;;;;;;5052538;28;20052;-84
2022/05/21 04:18:53;;;;;;;16.77;11.90;;;25.40;67.20;;;;;;5052326;28;20380;-85
2022/05/21 04:21:19;;;;;;;13.48;9.65;;;25.30;67.30;;;;;;5036347;28;20029;-78
2022/05/21 04:23:45;;;;;;;13.77;10.80;;;25.30;67.50;;;;;;5054614;28;20064;-84
2022/05/21 04:26:11;;;;;;;13.20;10.80;;;25.20;67.70;;;;;;5073580;28;20058;-82
2022/05/21 04:28:37;;;;;;;16.27;11.55;;;25.30;67.30;;;;;;5072938;28;20029;-89
2022/05/21 04:31:02;;;;;;;14.05;11.00;;;25.40;67.10;;;;;;5072262;28;20023;-85
2022/05/21 04:33:28;;;;;;;13.35;11.52;;;25.40;67.40;;;;;;5072537;28;20036;-85
2022/05/21 04:38:38;;;;;;;15.70;13.00;;;25.00;68.20;;;;;;5053867;28;20039;-83
2022/05/21 04:41:03;;;;;;;13.05;11.50;;;24.90;68.50;;;;;;5054518;28;20022;-81
2022/05/21 04:43:29;;;;;;;14.43;10.80;;;24.90;68.80;;;;;;5040117;28;20021;-82
2022/05/21 04:45:58;;;;;;;13.55;11.30;;;24.70;69.80;;;;;;5051504;28;20104;-84
2022/05/21 04:48:26;;;;;;;13.95;10.63;;;24.40;70.30;;;;;;5051969;28;20029;-91
2022/05/21 04:50:52;;;;;;;11.70;9.55;;;24.20;71.20;;;;;;5054185;28;20025;-82
2022/05/21 04:53:18;;;;;;;11.85;9.95;;;24.30;70.90;;;;;;5056728;28;20051;-83
2022/05/21 04:55:45;;;;;;;10.77;7.95;;;24.30;71.20;;;;;;5057093;28;20487;-84
2022/05/21 04:58:11;;;;;;;8.20;7.00;;;24.20;71.20;;;;;;5055702;28;20100;-77
2022/05/21 05:00:37;;;;;;;10.48;7.40;;;24.20;71.60;;;;;;5038828;28;20151;-79
2022/05/21 05:03:03;;;;;;;7.78;6.15;;;24.60;70.50;;;;;;5053347;28;20036;-80
2022/05/21 05:05:28;;;;;;;7.63;6.05;;;24.70;70.90;;;;;;5055877;28;20082;-82
2022/05/21 05:07:54;;;;;;;8.82;5.80;;;24.70;70.20;;;;;;5059926;28;20352;-87
2022/05/21 05:10:20;;;;;;;8.25;6.20;;;24.70;70.00;;;;;;5040611;28;20037;-78
2022/05/21 05:12:45;;;;;;;7.07;4.90;;;24.70;70.10;;;;;;5036614;28;20050;-79
2022/05/21 05:15:11;;;;;;;6.78;4.65;;;24.70;70.20;;;;;;5040741;28;20496;-83
2022/05/21 05:17:36;;;;;;;7.63;3.97;;;24.70;70.40;;;;;;5035143;28;20024;-81
2022/05/21 05:20:03;;;;;;;6.32;3.20;;;24.70;69.80;;;;;;5036446;28;20033;-78
2022/05/21 05:22:29;;;;;;;5.07;3.20;;;24.40;69.60;;;;;;5046976;28;20108;-83
2022/05/21 05:24:54;;;;;;;4.78;3.00;;;24.20;70.90;;;;;;5050265;28;20064;-82
2022/05/21 05:27:21;;;;;;;5.70;2.83;;;24.10;71.50;;;;;;5048891;28;20086;-83
2022/05/21 05:29:47;;;;;;;5.28;2.88;;;24.00;71.60;;;;;;5043825;28;20075;-81
2022/05/21 05:32:13;;;;;;;7.80;3.60;;;23.60;72.20;;;;;;5053284;28;20025;-79
2022/05/21 05:34:39;;;;;;;6.88;3.40;;;22.90;75.00;;;;;;5056648;28;20106;-88
2022/05/21 05:37:08;;;;;;;5.35;2.95;;;22.50;77.00;;;;;;5056022;28;20028;-86
2022/05/21 05:39:34;;;;;;;4.30;3.20;;;22.70;76.40;;;;;;5056587;28;20029;-79
2022/05/21 05:42:04;;;;;;;6.82;3.45;;;23.20;75.00;;;;;;5054943;28;20029;-84
2022/05/21 05:44:31;;;;;;;8.32;3.88;;;23.30;74.20;;;;;;5055223;28;20029;-78
2022/05/21 05:46:57;;;;;;;7.65;3.90;;;23.40;73.70;;;;;;5055296;28;20498;-83
2022/05/21 05:49:23;;;;;;;7.88;4.53;;;23.50;73.90;;;;;;5055854;28;20044;-78
2022/05/21 05:51:48;;;;;;;7.63;4.35;;;23.50;74.00;;;;;;5038423;28;20029;-81
2022/05/21 05:54:14;;;;;;;7.22;4.32;;;23.60;74.10;;;;;;5047534;28;20506;-82
2022/05/21 05:56:44;;;;;;;7.57;4.68;;;23.60;74.10;;;;;;5045503;28;20021;-79
2022/05/21 06:02:58;;;;;;;9.15;4.90;;;23.70;73.90;;;;;;5038895;28;20080;-85
2022/05/21 06:04:41;;;;;;;6.95;4.88;;;23.70;73.80;;;;;;5044917;28;20033;-90
2022/05/21 06:07:11;;;;;;;10.13;5.25;;;23.30;75.70;;;;;;5044964;28;20062;-82
2022/05/21 06:09:37;;;;;;;7.18;5.13;;;23.40;75.60;;;;;;5034158;28;20387;-78
2022/05/21 06:12:03;;;;;;;8.88;5.50;;;23.60;75.00;;;;;;5035089;28;20472;-82
2022/05/21 06:14:29;;;;;;;8.95;5.35;;;23.80;74.70;;;;;;5048435;28;20056;-87
2022/05/21 06:16:55;;;;;;;12.02;5.57;;;23.40;75.10;;;;;;5054695;28;20025;-88
2022/05/21 06:19:21;;;;;;;8.25;5.50;;;23.10;76.80;;;;;;5055702;28;20392;-86
2022/05/21 06:21:46;;;;;;;10.02;5.75;;;23.10;76.60;;;;;;5054376;28;20387;-80
2022/05/21 06:24:12;;;;;;;9.82;5.60;;;23.20;77.00;;;;;;5054268;28;20120;-81
2022/05/21 06:26:37;;;;;;;10.77;5.72;;;23.30;76.90;;;;;;5054171;28;20017;-83
2022/05/21 06:29:06;;;;;;;9.07;5.70;;;23.20;77.30;;;;;;5039694;28;20040;-81
2022/05/21 06:31:32;;;;;;;8.50;6.25;;;23.20;77.60;;;;;;5041711;28;20025;-83
2022/05/21 06:33:57;;;;;;;9.45;6.63;;;23.40;77.10;;;;;;5036383;28;20132;-82
2022/05/21 06:36:24;;;;;;;9.30;6.30;;;23.70;76.20;;;;;;5039891;28;20029;-80
2022/05/21 06:38:53;;;;;;;11.63;7.18;;;24.00;75.20;;;;;;5041181;28;20025;-83
2022/05/21 06:41:19;;;;;;;12.82;7.55;;;23.90;75.30;;;;;;5033992;28;20025;-86
2022/05/21 06:43:44;;;;;;;9.52;6.35;;;24.00;75.40;;;;;;5033793;28;20034;-81
2022/05/21 06:46:10;;;;;;;9.02;6.75;;;24.20;74.60;;;;;;5033707;28;20029;-80
2022/05/21 06:48:36;;;;;;;11.55;6.95;;;24.40;74.60;;;;;;5033927;28;20034;-78
2022/05/21 06:51:05;;;;;;;10.55;6.20;;;24.70;74.10;;;;;;5033909;28;20087;-86
2022/05/21 06:53:33;;;;;;;8.83;6.37;;;24.70;73.60;;;;;;5035050;28;20025;-88
2022/05/21 06:55:59;;;;;;;12.02;7.85;;;24.70;74.10;;;;;;5035238;28;20029;-84
2022/05/21 06:58:24;;;;;;;8.70;6.00;;;24.70;73.70;;;;;;5034882;28;20022;-85
2022/05/21 07:00:50;;;;;;;12.18;8.63;;;24.60;75.00;;;;;;5034413;28;20037;-79
2022/05/21 07:03:16;;;;;;;12.43;7.68;;;24.70;74.60;;;;;;5033257;28;20060;-84
2022/05/21 07:08:28;;;;;;;9.00;6.15;;;25.20;73.00;;;;;;5044741;28;20032;-76
2022/05/21 07:10:53;;;;;;;11.52;6.05;;;25.10;73.60;;;;;;5054247;28;20043;-81
2022/05/21 07:13:21;;;;;;;8.75;5.65;;;25.10;73.40;;;;;;5051543;28;20500;-87
2022/05/21 07:15:49;;;;;;;9.10;6.18;;;25.10;73.30;;;;;;5054579;28;20032;-78
2022/05/21 07:18:17;;;;;;;8.18;5.75;;;24.60;74.10;;;;;;5053168;28;20025;-86
2022/05/21 07:20:46;;;;;;;9.82;5.50;;;24.30;75.10;;;;;;5053563;28;20033;-83
2022/05/21 07:23:14;;;;;;;9.25;5.32;;;24.10;75.30;;;;;;5054468;28;20104;-83
2022/05/21 07:25:40;;;;;;;7.53;5.07;;;24.40;75.20;;;;;;5054112;28;20037;-80
2022/05/21 07:28:07;;;;;;;8.75;4.70;;;24.50;74.60;;;;;;5053221;28;20025;-80
2022/05/21 07:30:34;;;;;;;7.57;4.78;;;24.40;74.90;;;;;;5053912;28;20029;-80
2022/05/21 07:32:59;;;;;;;7.60;4.93;;;24.60;74.00;;;;;;5052886;28;20021;-85
2022/05/21 07:35:27;;;;;;;10.43;5.38;;;25.00;73.70;;;;;;5052573;28;20032;-82
2022/05/21 07:37:53;;;;;;;7.80;4.65;;;24.80;73.70;;;;;;5048573;28;20574;-83
2022/05/21 07:40:20;;;;;;;6.45;4.22;;;24.60;73.60;;;;;;5033777;28;20036;-81
2022/05/21 07:42:46;;;;;;;7.28;4.78;;;24.60;74.40;;;;;;5032895;28;20537;-78
2022/05/21 07:45:14;;;;;;;7.28;4.30;;;24.80;73.90;;;;;;5033504;28;20022;-82
2022/05/21 07:47:40;;;;;;;8.00;4.25;;;24.60;73.80;;;;;;5032334;28;20436;-80
2022/05/21 07:50:07;;;;;;;5.57;4.05;;;24.80;74.30;;;;;;5033949;28;20125;-77
2022/05/21 07:52:33;;;;;;;6.40;4.13;;;24.70;74.50;;;;;;5040746;28;20029;-75
2022/05/21 07:54:58;;;;;;;9.30;4.45;;;25.10;73.90;;;;;;4714880;28;9999916;-80
2022/05/21 07:57:24;;;;;;;6.93;3.90;;;25.50;72.70;;;;;;5031665;28;20385;-80
2022/05/21 07:59:51;;;;;;;7.97;4.30;;;25.70;71.60;;;;;;5042269;28;20137;-77
2022/05/21 08:02:46;;;;;;;6.20;4.07;;;25.70;71.60;;;;;;5088210;28;21353;-82
2022/05/21 08:05:13;;;;;;;6.60;4.18;;;25.60;72.40;;;;;;5086446;28;20089;-81
2022/05/21 08:07:39;;;;;;;5.50;3.75;;;25.70;72.40;;;;;;5085774;28;20592;-77
2022/05/21 08:10:06;;;;;;;6.45;4.28;;;25.90;72.10;;;;;;5069066;28;20518;-77
2022/05/21 08:12:32;;;;;;;6.22;3.90;;;26.00;71.70;;;;;;5068322;28;20100;-82
2022/05/21 08:15:10;;;;;;;8.65;3.95;;;26.10;72.10;;;;;;5050425;28;20033;-82
2022/05/21 08:17:35;;;;;;;9.02;4.30;;;26.00;72.10;;;;;;5067744;28;20116;-80
2022/05/21 08:20:01;;;;;;;9.73;4.28;;;26.30;71.80;;;;;;5066683;28;20024;-79
2022/05/21 08:27:56;;;;;;;8.15;4.00;;;26.50;72.60;;;;;;5067940;28;20379;-79
2022/05/21 08:30:22;;;;;;;8.23;4.50;;;26.60;72.40;;;;;;5067728;28;20021;-78
2022/05/21 08:32:48;;;;;;;8.90;4.50;;;26.90;71.20;;;;;;5067181;28;20025;-78
2022/05/21 08:35:13;;;;;;;8.30;4.43;;;26.90;70.80;;;;;;5066952;28;20025;-84
2022/05/21 08:37:39;;;;;;;7.05;4.72;;;27.30;71.10;;;;;;5068240;28;20040;-86
2022/05/21 08:40:05;;;;;;;8.75;4.40;;;27.40;69.20;;;;;;5068002;28;20025;-89
2022/05/21 08:42:33;;;;;;;9.18;4.80;;;27.50;69.70;;;;;;5066467;28;20550;-90
2022/05/21 08:45:22;;;;;;;15.05;5.07;;;27.60;69.40;;;;;;5067356;28;20028;-82
2022/05/21 08:48:03;;;;;;;7.45;5.05;;;27.60;69.40;;;;;;5066467;28;20399;-80
2022/05/21 08:50:34;;;;;;;7.25;4.70;;;27.70;68.50;;;;;;5066945;28;20021;-85
2022/05/21 08:53:09;;;;;;;7.03;4.85;;;27.60;68.20;;;;;;5065998;28;20056;-86
2022/05/21 08:55:42;;;;;;;7.70;4.80;;;27.90;68.10;;;;;;5075841;28;20027;-81
2022/05/21 08:58:30;;;;;;;6.80;4.93;;;28.10;68.00;;;;;;5086655;28;20032;-87
2022/05/21 09:00:56;;;;;;;8.30;4.95;;;28.40;67.90;;;;;;5047034;28;20132;-77
2022/05/21 09:03:24;;;;;;;8.30;5.00;;;28.60;67.50;;;;;;5046993;28;20112;-78
2022/05/21 09:06:31;;;;;;;13.70;5.13;;;28.70;66.30;;;;;;5046389;28;20135;-78
2022/05/21 09:09:34;;;;;;;7.65;4.93;;;28.60;67.20;;;;;;5040981;28;20041;-79
2022/05/21 09:12:11;;;;;;;7.55;4.90;;;28.70;64.50;;;;;;5024861;28;20029;-82
2022/05/21 09:14:42;;;;;;;8.27;5.00;;;28.40;66.50;;;;;;5016246;28;20146;-82
2022/05/21 09:17:16;;;;;;;9.63;4.88;;;28.40;66.60;;;;;;5013578;28;20499;-79
2022/05/21 09:19:49;;;;;;;8.95;5.05;;;28.40;65.10;;;;;;4996869;28;20085;-86
2022/05/21 09:22:18;;;;;;;7.63;4.60;;;28.60;64.80;;;;;;5013945;28;20072;-86
2022/05/21 09:24:48;;;;;;;8.88;4.72;;;28.80;63.30;;;;;;4997874;28;20310;-79
2022/05/21 09:27:26;;;;;;;8.80;5.05;;;28.70;63.40;;;;;;5009502;28;20076;-84
2022/05/21 09:30:12;;;;;;;8.25;5.18;;;28.70;63.00;;;;;;5036411;28;20021;-89
2022/05/21 09:32:39;;;;;;;8.70;4.97;;;28.90;63.10;;;;;;4681218;28;10000283;-85
2022/05/21 09:35:13;;;;;;;6.45;4.60;;;28.70;63.90;;;;;;5014262;28;20506;-82
2022/05/21 09:37:40;;;;;;;8.05;4.20;;;28.40;63.20;;;;;;5030308;28;20124;-81
2022/05/21 09:40:34;;;;;;;9.63;4.70;;;28.70;62.40;;;;;;5029655;28;20034;-84
2022/05/21 09:46:34;;;;;;;6.38;4.38;;;28.70;62.20;;;;;;5044257;28;20052;-79
2022/05/21 09:49:23;;;;;;;7.22;4.35;;;28.40;61.60;;;;;;5052291;28;20044;-85
2022/05/21 09:51:57;;;;;;;9.27;4.20;;;28.80;60.90;;;;;;5052834;28;20112;-84
2022/05/21 09:54:29;;;;;;;9.70;4.63;;;29.10;60.00;;;;;;5052572;28;20479;-82
2022/05/21 09:56:57;;;;;;;8.43;3.95;;;29.50;60.70;;;;;;5051830;28;20030;-78
2022/05/21 09:59:26;;;;;;;7.55;4.15;;;29.70;59.40;;;;;;5053512;28;20028;-86
2022/05/21 10:01:55;;;;;;;6.40;3.90;;;29.60;58.90;;;;;;5054314;28;20395;-86
2022/05/21 10:04:27;;;;;;;6.82;3.88;;;29.80;57.90;;;;;;5052550;28;20017;-79
2022/05/21 10:07:04;;;;;;;6.78;3.63;;;29.30;57.00;;;;;;5052812;28;20654;-82
2022/05/21 10:12:29;;;;;;;7.57;3.53;;;29.30;55.40;;;;;;5053170;28;20067;-79
2022/05/21 10:15:17;;;;;;;7.25;3.58;;;29.50;56.40;;;;;;5052043;28;20040;-85
2022/05/21 10:17:59;;;;;;;7.45;3.53;;;29.30;57.00;;;;;;5052076;28;20448;-84
2022/05/21 10:20:35;;;;;;;4.88;3.55;;;29.10;56.50;;;;;;5051126;28;20071;-80
2022/05/21 10:23:32;;;;;;;5.25;3.50;;;29.30;57.10;;;;;;5053647;28;20055;-87
2022/05/21 10:26:07;;;;;;;4.43;3.28;;;29.20;56.40;;;;;;5051976;28;20063;-79
2022/05/21 10:28:57;;;;;;;7.68;3.80;;;29.40;56.90;;;;;;5052215;28;20033;-85
2022/05/21 10:31:36;;;;;;;8.38;3.40;;;29.40;56.40;;;;;;5052791;28;20539;-82
2022/05/21 10:34:08;;;;;;;4.93;3.20;;;29.40;56.00;;;;;;5061663;28;20070;-78
2022/05/21 10:37:09;;;;;;;5.68;3.38;;;29.70;57.30;;;;;;5051469;28;20033;-84
2022/05/21 10:39:44;;;;;;;6.63;3.15;;;30.00;55.70;;;;;;5051443;28;20107;-86
2022/05/21 10:42:35;;;;;;;4.80;2.80;;;30.00;54.60;;;;;;5051123;28;20039;-85
2022/05/21 10:45:20;;;;;;;5.45;2.92;;;30.00;54.40;;;;;;5048721;28;20052;-84
2022/05/21 10:48:34;;;;;;;5.68;2.72;;;30.20;53.70;;;;;;5051556;28;20391;-81
2022/05/21 10:51:19;;;;;;;8.52;3.05;;;30.40;53.00;;;;;;5050937;28;20064;-85
2022/05/21 10:53:53;;;;;;;8.07;2.50;;;29.90;51.90;;;;;;5033343;28;20029;-87
2022/05/21 10:56:37;;;;;;;7.18;2.95;;;29.90;53.60;;;;;;5032272;28;20044;-82
2022/05/21 10:59:25;;;;;;;5.68;2.55;;;30.20;53.60;;;;;;5050244;28;20031;-84
2022/05/21 11:01:59;;;;;;;6.22;2.70;;;30.50;52.40;;;;;;5032839;28;20049;-79
2022/05/21 11:04:56;;;;;;;5.57;2.60;;;30.10;52.90;;;;;;5050350;28;20356;-89
2022/05/21 11:07:48;;;;;;;6.00;2.65;;;30.10;52.70;;;;;;5050159;28;20112;-85
2022/05/21 11:10:20;;;;;;;5.55;2.90;;;30.00;52.10;;;;;;5033035;28;20032;-83
2022/05/21 11:13:10;;;;;;;3.90;2.60;;;29.90;52.30;;;;;;5032924;28;20025;-81
2022/05/21 11:16:15;;;;;;;6.63;2.78;;;29.70;51.90;;;;;;5049725;28;20486;-83
2022/05/21 11:18:51;;;;;;;4.75;2.60;;;29.50;50.90;;;;;;5049393;28;20041;-82
2022/05/21 11:21:26;;;;;;;6.30;2.90;;;29.20;51.60;;;;;;5035529;28;20056;-87
2022/05/21 11:24:08;;;;;;;6.88;2.72;;;29.50;52.50;;;;;;5051030;28;20176;-83
2022/05/21 11:26:59;;;;;;;5.75;2.60;;;29.90;52.50;;;;;;5051029;28;20029;-83
2022/05/21 11:29:55;;;;;;;6.30;2.45;;;29.50;51.20;;;;;;5050509;28;20118;-81
2022/05/21 11:38:44;;;;;;;6.05;2.50;;;29.90;51.70;;;;;;5052283;28;20039;-87
2022/05/21 11:41:29;;;;;;;6.18;2.50;;;30.20;51.40;;;;;;5050750;28;20029;-80
2022/05/21 11:47:13;;;;;;;4.18;2.10;;;30.30;51.20;;;;;;5072240;28;20198;-83
2022/05/21 11:49:52;;;;;;;6.93;2.80;;;30.30;49.40;;;;;;5069221;28;20025;-82
2022/05/21 11:52:27;;;;;;;9.63;2.60;;;30.20;49.60;;;;;;5072119;28;20135;-84
2022/05/21 11:55:07;;;;;;;8.13;2.22;;;29.90;48.70;;;;;;5075132;28;20494;-82
2022/05/21 11:57:53;;;;;;;9.55;3.10;;;30.00;48.90;;;;;;5074538;28;20016;-84
2022/05/21 12:00:18;;;;;;;6.05;2.10;;;30.30;48.60;;;;;;5074605;28;20032;-83
2022/05/21 12:02:53;;;;;;;6.68;2.80;;;30.50;47.50;;;;;;5072919;28;20048;-84
2022/05/21 12:05:34;;;;;;;7.97;2.97;;;30.30;47.00;;;;;;5072382;28;20017;-83
2022/05/21 12:09:00;;;;;;;5.43;1.92;;;30.40;47.80;;;;;;5072539;28;20029;-83
2022/05/21 12:11:41;;;;;;;5.72;2.22;;;30.60;47.00;;;;;;5017477;28;20029;-81
2022/05/21 12:14:15;;;;;;;;;;;30.80;48.00;;;;;;5032549;28;20144;-88
2022/05/21 12:16:43;;;;;;;5.20;2.10;;;30.60;45.50;;;;;;5031882;28;19916;-80
2022/05/21 12:19:09;;;;;;;6.63;2.20;;;30.40;45.60;;;;;;5015006;28;20049;-81
2022/05/21 12:21:36;;;;;;;3.85;1.80;;;30.20;45.90;;;;;;5011285;28;20038;-84
2022/05/21 12:24:27;;;;;;;5.05;1.90;;;29.80;46.20;;;;;;5011779;28;20114;-88
2022/05/21 12:27:23;;;;;;;5.75;2.00;;;30.10;46.60;;;;;;4995163;28;20872;-85
2022/05/21 12:29:57;;;;;;;5.97;2.00;;;29.90;45.00;;;;;;4994714;28;20022;-84
2022/05/21 12:32:27;;;;;;;4.72;1.80;;;29.60;46.70;;;;;;5011352;28;20064;-81
2022/05/21 12:35:13;;;;;;;5.80;2.00;;;29.80;46.30;;;;;;4994864;28;20044;-82
2022/05/21 12:37:43;;;;;;;4.38;2.00;;;30.20;46.20;;;;;;5028096;28;20604;-80
2022/05/21 12:40:33;;;;;;;8.23;2.40;;;30.60;45.90;;;;;;5007341;28;20034;-81
2022/05/21 12:43:10;;;;;;;7.20;1.92;;;30.40;46.20;;;;;;5022434;28;20070;-81
2022/05/21 12:45:44;;;;;;;6.30;2.55;;;30.10;46.30;;;;;;5023978;28;20487;-87
2022/05/21 12:48:20;;;;;;;6.25;2.05;;;30.10;45.30;;;;;;5041487;28;20079;-85
2022/05/21 12:50:48;;;;;;;5.80;2.28;;;29.80;47.20;;;;;;5056266;28;20021;-82
2022/05/21 12:53:18;;;;;;;5.63;2.08;;;29.80;46.80;;;;;;5055024;28;20037;-84
2022/05/21 12:55:44;;;;;;;6.88;2.10;;;30.10;46.60;;;;;;5055207;28;20029;-83
2022/05/21 12:58:10;;;;;;;10.57;2.00;;;30.20;46.10;;;;;;5074873;28;20074;-83
2022/05/21 13:00:37;;;;;;;5.55;2.08;;;30.00;44.60;;;;;;5057856;28;20095;-85
2022/05/21 13:03:08;;;;;;;5.50;1.80;;;30.10;46.30;;;;;;5056177;28;20037;-79
2022/05/21 13:05:47;;;;;;;5.70;2.08;;;30.20;45.60;;;;;;5056507;28;20472;-83
2022/05/21 13:08:13;;;;;;;4.97;1.90;;;30.60;45.80;;;;;;5054779;28;20483;-82
2022/05/21 13:10:51;;;;;;;3.45;2.05;;;30.70;45.00;;;;;;5056719;28;20095;-85
2022/05/21 13:13:20;;;;;;;5.20;2.58;;;30.60;45.80;;;;;;5064003;28;20020;-80
2022/05/21 13:16:00;;;;;;;3.70;1.92;;;30.30;45.50;;;;;;5058303;28;20021;-83
2022/05/21 13:18:38;;;;;;;5.22;2.20;;;30.50;46.70;;;;;;5066186;28;20021;-83
2022/05/21 13:21:24;;;;;;;6.18;1.80;;;30.60;45.10;;;;;;5052545;28;20041;-82
2022/05/21 13:24:26;;;;;;;7.45;1.90;;;30.40;44.20;;;;;;5053996;28;20032;-83
2022/05/21 13:27:14;;;;;;;4.10;1.90;;;30.20;45.80;;;;;;5035621;28;20026;-85
2022/05/21 13:29:40;;;;;;;4.57;2.28;;;30.20;45.30;;;;;;5067089;28;20074;-80
2022/05/21 13:32:26;;;;;;;5.45;2.25;;;30.10;46.50;;;;;;5072379;28;20021;-84
2022/05/21 13:34:54;;;;;;;8.80;2.30;;;30.30;45.70;;;;;;5054475;28;20029;-82
2022/05/21 13:37:34;;;;;;;5.28;1.98;;;30.30;45.60;;;;;;5054306;28;20483;-78
2022/05/21 13:40:28;;;;;;;8.60;2.10;;;30.40;45.40;;;;;;5054154;28;20017;-87